Time;durP1;ratioP1;P1;durP2;ratioP2;P2;SDS_P1;SDS_P2;PMS_P1;PMS_P2;Temp;Humidity;BMP_temperature;BMP_pressure;BME280_temperature;BME280_humidity;BME280_pressure;Samples;Min_cycle;Max_cycle;Signal;HPM_P1;HPM_P2
2022/05/23 00:01:42;;;;;;;7.72;5.80;;;;;;;9.04;90.99;98178.78;4188897;28;20130;-70
2022/05/23 00:03:43;;;;;;;6.30;5.05;;;;;;;9.07;89.76;98173.28;4187598;28;20052;-70
2022/05/23 00:05:44;;;;;;;6.38;5.18;;;;;;;9.10;89.96;98180.84;4186970;28;20048;-70
2022/05/23 00:07:47;;;;;;;7.93;5.32;;;;;;;9.12;90.33;98172.16;4184950;28;20040;-70
2022/05/23 00:09:47;;;;;;;8.52;5.60;;;;;;;9.13;89.57;98169.03;4186832;28;20548;-70
2022/05/23 00:11:48;;;;;;;7.63;5.80;;;;;;;9.10;89.82;98166.22;4186391;28;20059;-70
2022/05/23 00:13:48;;;;;;;7.30;5.65;;;;;;;9.03;90.90;98163.38;4186051;28;20213;-70
2022/05/23 00:15:49;;;;;;;6.57;5.18;;;;;;;8.97;91.57;98162.91;4186638;28;20120;-70
2022/05/23 00:17:50;;;;;;;8.07;6.05;;;;;;;8.91;91.96;98151.41;4187260;28;20080;-70
2022/05/23 00:19:50;;;;;;;7.40;5.40;;;;;;;8.88;91.65;98146.66;4184923;28;20032;-70
2022/05/23 00:21:51;;;;;;;8.05;5.80;;;;;;;8.80;92.55;98142.19;4188185;28;20044;-70
2022/05/23 00:23:51;;;;;;;6.68;5.10;;;;;;;8.73;93.32;98139.34;4186263;28;20353;-70
2022/05/23 00:25:52;;;;;;;8.50;6.15;;;;;;;8.64;92.81;98134.09;4185929;28;20043;-70
2022/05/23 00:27:52;;;;;;;7.57;5.82;;;;;;;8.61;92.85;98137.63;4186034;28;20048;-70
2022/05/23 00:29:53;;;;;;;7.18;5.45;;;;;;;8.60;93.54;98133.25;4185219;28;20040;-70
2022/05/23 00:36:33;;;;;;;6.80;5.53;;;;;;;8.55;93.42;98130.03;4185840;28;20048;-70
2022/05/23 00:38:33;;;;;;;10.60;5.78;;;;;;;8.50;92.99;98128.41;4184157;28;20064;-70
2022/05/23 00:40:38;;;;;;;9.23;6.15;;;;;;;8.46;94.02;98126.78;4186271;28;20047;-70
2022/05/23 00:45:00;;;;;;;8.45;5.18;;;;;;;8.42;93.17;98116.47;4186140;28;20104;-70
2022/05/23 00:47:03;;;;;;;11.13;5.60;;;;;;;8.39;94.66;98113.69;4187111;28;20040;-70
2022/05/23 00:49:05;;;;;;;7.18;5.47;;;;;;;8.34;96.19;98113.94;4186577;28;20048;-70
2022/05/23 00:51:13;;;;;;;8.50;5.90;;;;;;;8.32;97.26;98124.56;4186216;28;20090;-70
2022/05/23 00:53:15;;;;;;;7.60;5.82;;;;;;;8.33;98.44;98109.59;4185266;27;21061;-70
2022/05/23 00:55:23;;;;;;;8.80;6.05;;;;;;;8.36;96.39;98117.19;4188698;28;20040;-70
2022/05/23 00:57:45;;;;;;;7.70;6.30;;;;;;;8.34;96.20;98113.94;4184714;28;20036;-70
2022/05/23 00:59:47;;;;;;;8.57;5.38;;;;;;;8.30;96.51;98115.88;4185508;28;20166;-70
2022/05/23 01:01:47;;;;;;;6.72;5.18;;;;;;;8.31;96.51;98115.50;4186023;28;20048;-70
2022/05/23 01:03:48;;;;;;;12.65;6.93;;;;;;;8.30;97.13;98116.66;4185709;28;20102;-70
2022/05/23 01:05:51;;;;;;;7.22;5.53;;;;;;;8.31;97.20;98120.22;4187177;28;20094;-70
2022/05/23 01:07:52;;;;;;;9.88;5.75;;;;;;;8.25;97.92;98108.72;4185540;28;20049;-70
2022/05/23 01:09:52;;;;;;;9.38;5.97;;;;;;;8.24;97.45;98098.84;4184706;28;20089;-70
2022/05/23 01:11:58;;;;;;;9.13;6.10;;;;;;;8.20;98.39;98108.25;4186072;28;20044;-70
2022/05/23 01:13:58;;;;;;;10.45;5.75;;;;;;;8.18;99.30;98105.84;4184913;28;20141;-70
2022/05/23 01:15:59;;;;;;;6.20;5.20;;;;;;;8.18;99.08;98105.84;4184943;28;20040;-70
2022/05/23 01:17:59;;;;;;;9.55;5.55;;;;;;;8.15;97.63;98098.31;4184824;28;20442;-70
2022/05/23 01:19:59;;;;;;;6.82;5.40;;;;;;;8.15;98.19;98098.31;4187453;28;20040;-70
2022/05/23 01:22:09;;;;;;;9.25;5.70;;;;;;;8.14;97.91;98094.00;4185400;28;20033;-70
2022/05/23 01:24:23;;;;;;;10.38;6.43;;;;;;;8.09;98.67;98097.84;4185083;28;20036;-70
2022/05/23 01:26:24;;;;;;;6.68;5.60;;;;;;;8.03;99.45;98096.59;4185357;28;20041;-70
2022/05/23 01:28:25;;;;;;;6.13;5.28;;;;;;;8.00;98.96;98107.53;4186312;28;20262;-70
2022/05/23 01:30:25;;;;;;;5.90;4.95;;;;;;;8.00;97.92;98122.09;4186060;28;20512;-70
2022/05/23 01:32:26;;;;;;;6.40;5.68;;;;;;;7.99;97.48;98114.22;4188400;28;20496;-70
2022/05/23 01:34:26;;;;;;;9.57;6.28;;;;;;;7.96;98.42;98121.28;4186579;28;20510;-70
2022/05/23 01:36:26;;;;;;;7.15;5.80;;;;;;;7.94;99.07;98107.03;4186235;28;20319;-70
2022/05/23 01:38:27;;;;;;;6.75;5.72;;;;;;;7.92;96.43;98105.84;4192330;28;20043;-70
2022/05/23 01:40:28;;;;;;;7.57;5.80;;;;;;;7.94;96.24;98103.50;4201485;27;20353;-70
2022/05/23 01:42:28;;;;;;;7.40;5.80;;;;;;;7.93;96.78;98105.47;4201192;27;20440;-70
2022/05/23 01:44:28;;;;;;;9.45;6.65;;;;;;;7.96;99.26;98106.69;4198623;27;20147;-70
2022/05/23 01:46:29;;;;;;;11.82;6.45;;;;;;;7.89;99.81;98096.38;4185709;28;20036;-70
2022/05/23 01:48:29;;;;;;;8.85;6.38;;;;;;;7.83;100.00;98093.13;4185485;28;20037;-70
2022/05/23 01:50:30;;;;;;;8.75;6.40;;;;;;;7.80;100.00;98085.59;4185887;28;20068;-70
2022/05/23 01:52:31;;;;;;;7.75;5.65;;;;;;;7.75;100.00;98080.41;4185942;28;20033;-70
2022/05/23 01:54:31;;;;;;;8.18;5.60;;;;;;;7.75;98.88;98077.63;4186392;28;20056;-70
2022/05/23 01:56:32;;;;;;;9.23;5.38;;;;;;;7.75;96.63;98069.38;4185866;28;20044;-70
2022/05/23 02:03:09;;;;;;;8.90;5.85;;;;;;;7.73;93.37;98060.69;4193514;28;20063;-70
2022/05/23 02:05:11;;;;;;;8.10;5.93;;;;;;;7.70;95.61;98063.41;4186045;28;20049;-70
2022/05/23 02:07:12;;;;;;;12.90;6.75;;;;;;;7.64;96.19;98060.16;4189341;28;20453;-70
2022/05/23 02:09:13;;;;;;;8.95;5.40;;;;;;;7.60;96.50;98056.53;4185245;28;20350;-70
2022/05/23 02:11:14;;;;;;;7.85;5.70;;;;;;;7.58;96.36;98054.16;4185837;28;20044;-70
2022/05/23 02:13:14;;;;;;;7.60;5.80;;;;;;;7.59;95.78;98039.22;4192856;28;20127;-70
2022/05/23 02:15:16;;;;;;;6.50;5.60;;;;;;;7.66;94.65;98037.75;4185648;28;20072;-70
2022/05/23 02:17:16;;;;;;;6.85;5.38;;;;;;;7.70;94.19;98044.13;4189322;28;20123;-70
2022/05/23 02:19:17;;;;;;;7.20;5.03;;;;;;;7.75;92.82;98039.09;4190659;28;20131;-70
2022/05/23 02:21:17;;;;;;;7.25;4.85;;;;;;;7.77;92.67;98035.97;4186015;28;20059;-70
2022/05/23 02:23:18;;;;;;;6.60;4.78;;;;;;;7.76;92.28;98042.63;4185679;28;20083;-70
2022/05/23 02:25:18;;;;;;;8.23;5.18;;;;;;;7.69;92.77;98043.31;4193525;28;20468;-70
2022/05/23 02:27:18;;;;;;;8.57;5.47;;;;;;;7.64;93.94;98049.16;4200407;27;20044;-70
2022/05/23 02:29:19;;;;;;;7.07;5.22;;;;;;;7.53;94.85;98042.66;4194874;28;20157;-70
2022/05/23 02:31:19;;;;;;;9.15;4.60;;;;;;;7.53;94.24;98053.66;4201991;27;20036;-70
2022/05/23 02:33:20;;;;;;;6.22;5.30;;;;;;;7.52;94.14;98046.56;4203899;27;20051;-70
2022/05/23 02:35:21;;;;;;;7.97;5.68;;;;;;;7.49;94.74;98045.34;4203714;27;20055;-70
2022/05/23 02:37:21;;;;;;;6.10;5.07;;;;;;;7.45;95.24;98027.22;4200607;27;20455;-70
2022/05/23 02:39:21;;;;;;;6.90;5.28;;;;;;;7.45;94.71;98025.25;4188359;28;20391;-70
2022/05/23 02:41:22;;;;;;;6.90;5.32;;;;;;;7.43;95.35;98026.75;4188717;28;20044;-70
2022/05/23 02:43:23;;;;;;;12.18;5.75;;;;;;;7.53;93.64;98015.13;4188523;28;20036;-70
2022/05/23 02:45:23;;;;;;;6.57;4.65;;;;;;;7.60;92.84;98015.25;4195059;28;20036;-70
2022/05/23 02:47:23;;;;;;;7.45;4.97;;;;;;;7.67;92.33;98017.31;4203692;27;20063;-70
2022/05/23 02:49:24;;;;;;;7.88;5.43;;;;;;;7.59;93.62;98014.44;4203021;27;20434;-70
2022/05/23 02:51:24;;;;;;;8.48;6.07;;;;;;;7.53;94.45;98002.19;4203277;27;20047;-70
2022/05/23 02:53:25;;;;;;;6.88;5.70;;;;;;;7.49;94.51;97998.56;4203717;28;20114;-70
2022/05/23 02:55:25;;;;;;;10.38;6.63;;;;;;;7.40;95.69;97992.53;4203198;27;20044;-70
2022/05/23 02:57:25;;;;;;;7.55;5.72;;;;;;;7.34;96.79;97999.50;4200495;27;20094;-70
2022/05/23 02:59:26;;;;;;;7.97;6.30;;;;;;;7.28;98.51;98011.97;4187396;28;20483;-70
2022/05/23 03:01:27;;;;;;;7.22;5.72;;;;;;;7.18;100.00;98015.34;4188756;28;20036;-70
2022/05/23 03:03:27;;;;;;;10.18;5.78;;;;;;;7.18;100.00;98018.88;4188219;28;20036;-70
2022/05/23 03:05:36;;;;;;;7.28;5.30;;;;;;;7.18;100.00;98016.13;4194084;28;20242;-70
2022/05/23 03:07:37;;;;;;;7.32;5.43;;;;;;;7.23;99.18;98006.78;4202259;27;20051;-69
2022/05/23 03:09:37;;;;;;;8.70;5.50;;;;;;;7.30;99.69;98007.69;4201458;27;20048;-70
2022/05/23 03:11:37;;;;;;;7.90;5.43;;;;;;;7.33;100.00;97998.69;4204092;27;20162;-70
2022/05/23 03:13:38;;;;;;;7.32;5.78;;;;;;;7.38;99.99;97996.81;4190037;28;20060;-70
2022/05/23 03:15:38;;;;;;;6.85;5.57;;;;;;;7.46;97.67;97999.31;4191524;28;20040;-70
2022/05/23 03:17:39;;;;;;;6.15;4.95;;;;;;;7.53;95.67;97984.84;4204050;27;20086;-70
2022/05/23 03:19:39;;;;;;;7.93;5.43;;;;;;;7.52;96.55;97986.00;4201843;27;20118;-70
2022/05/23 03:28:46;;;;;;;8.40;5.45;;;;;;;7.46;98.78;97982.78;4202153;27;20961;-70
2022/05/23 03:30:47;;;;;;;7.10;5.70;;;;;;;7.47;99.32;97991.84;4202670;27;20064;-70
2022/05/23 03:32:48;;;;;;;7.85;5.95;;;;;;;7.50;100.00;97989.13;4203061;27;20314;-70
2022/05/23 03:34:48;;;;;;;8.38;5.75;;;;;;;7.57;100.00;97978.25;4199853;27;20040;-70
2022/05/23 03:36:49;;;;;;;8.05;5.82;;;;;;;7.60;99.87;97974.75;4187702;28;20139;-70
2022/05/23 03:38:49;;;;;;;10.27;7.10;;;;;;;7.67;100.00;97971.31;4187276;28;20662;-70
2022/05/23 03:40:49;;;;;;;8.68;6.68;;;;;;;7.68;100.00;97970.13;4187226;28;20095;-70
2022/05/23 03:42:50;;;;;;;7.32;5.88;;;;;;;7.73;100.00;97967.06;4187155;28;20496;-70
2022/05/23 03:44:50;;;;;;;7.00;5.82;;;;;;;7.76;100.00;97974.56;4187719;28;20040;-70
2022/05/23 03:46:50;;;;;;;10.05;6.03;;;;;;;7.77;100.00;97964.34;4187776;28;20127;-70
2022/05/23 03:48:51;;;;;;;8.65;6.57;;;;;;;7.84;100.00;97962.50;4195084;27;20073;-70
2022/05/23 03:50:51;;;;;;;8.57;6.00;;;;;;;7.85;100.00;97969.59;4202786;27;20036;-69
2022/05/23 03:52:52;;;;;;;7.07;5.90;;;;;;;7.89;100.00;97961.38;4202414;27;20058;-69
2022/05/23 03:54:52;;;;;;;7.57;6.10;;;;;;;7.97;100.00;97960.31;4191158;28;20680;-70
2022/05/23 03:57:00;;;;;;;9.98;6.85;;;;;;;7.99;100.00;97948.94;4186925;28;20396;-70
2022/05/23 03:59:00;;;;;;;7.60;6.20;;;;;;;7.99;100.00;97946.97;4187147;28;20036;-69
2022/05/23 04:01:10;;;;;;;8.90;6.88;;;;;;;8.05;100.00;97961.22;4187483;28;20344;-70
2022/05/23 04:03:11;;;;;;;7.43;6.35;;;;;;;8.08;100.00;97961.25;4187407;28;20456;-70
2022/05/23 04:05:14;;;;;;;10.23;6.75;;;;;;;8.10;100.00;97961.66;4200942;27;20043;-70
2022/05/23 04:07:14;;;;;;;8.75;6.35;;;;;;;8.11;100.00;97955.00;4192610;28;20296;-70
2022/05/23 04:09:15;;;;;;;8.60;6.38;;;;;;;8.16;100.00;97951.13;4196354;27;20375;-70
2022/05/23 04:11:15;;;;;;;7.95;6.47;;;;;;;8.22;100.00;97946.06;4203175;28;20558;-70
2022/05/23 04:13:15;;;;;;;6.80;5.72;;;;;;;8.25;100.00;97950.81;4201353;27;20441;-70
2022/05/23 04:15:17;;;;;;;9.52;6.35;;;;;;;8.27;100.00;97949.28;4201759;27;20048;-70
2022/05/23 04:17:17;;;;;;;6.75;5.82;;;;;;;8.32;100.00;97948.16;4202605;27;20061;-70
2022/05/23 04:19:18;;;;;;;7.40;5.78;;;;;;;8.33;100.00;97942.25;4196151;27;20044;-70
2022/05/23 04:21:19;;;;;;;6.88;5.50;;;;;;;8.37;100.00;97945.91;4186958;28;20063;-70
2022/05/23 04:23:19;;;;;;;7.30;4.88;;;;;;;8.39;100.00;97932.53;4187181;28;20047;-70
2022/05/23 04:25:20;;;;;;;8.48;6.00;;;;;;;8.41;100.00;97927.41;4197432;27;20335;-70
2022/05/23 04:27:20;;;;;;;6.60;5.40;;;;;;;8.46;100.00;97940.09;4201233;27;20170;-70
2022/05/23 04:29:21;;;;;;;7.95;6.45;;;;;;;8.54;99.21;97927.19;4201294;27;20040;-70
2022/05/23 04:31:21;;;;;;;13.15;6.40;;;;;;;8.59;99.09;97930.38;4191664;28;20047;-70
2022/05/23 04:35:40;;;;;;;8.55;6.80;;;;;;;8.67;99.72;97920.19;4186733;28;20099;-70
2022/05/23 04:37:46;;;;;;;8.00;5.97;;;;;;;8.75;99.75;97921.88;4186695;28;20040;-70
2022/05/23 04:39:46;;;;;;;7.88;6.68;;;;;;;8.80;100.00;97927.03;4191948;28;20374;-70
2022/05/23 04:41:47;;;;;;;10.00;6.70;;;;;;;8.86;99.90;97927.50;4185564;27;20452;-70
2022/05/23 04:43:47;;;;;;;8.48;6.60;;;;;;;8.90;100.00;97942.09;4188922;28;20433;-70
2022/05/23 04:45:47;;;;;;;9.73;7.38;;;;;;;8.97;99.41;97933.91;4186367;28;20036;-70
2022/05/23 04:50:07;;;;;;;8.35;6.90;;;;;;;9.00;99.28;97916.56;4184594;28;20464;-70
2022/05/23 04:52:10;;;;;;;10.07;6.60;;;;;;;9.03;99.37;97920.56;4185379;28;20024;-70
2022/05/23 04:54:11;;;;;;;12.13;8.55;;;;;;;9.03;99.32;97923.31;4185464;28;20357;-70
2022/05/23 04:56:11;;;;;;;18.45;7.70;;;;;;;9.07;99.50;97924.13;4126349;27;20058;-70
2022/05/23 04:58:12;;;;;;;9.13;7.15;;;;;;;9.11;99.61;97920.22;4188248;28;20279;-70
2022/05/23 05:00:18;;;;;;;9.85;6.68;;;;;;;9.13;99.44;97915.13;4183431;28;20184;-70
2022/05/23 05:02:18;;;;;;;10.32;6.93;;;;;;;9.18;99.99;97930.50;4186998;27;20743;-70
2022/05/23 05:04:19;;;;;;;10.50;7.32;;;;;;;9.18;99.98;97913.97;4185285;28;20032;-70
2022/05/23 05:06:21;;;;;;;9.52;7.88;;;;;;;9.26;98.88;97913.63;4185510;28;20128;-70
2022/05/23 05:08:22;;;;;;;10.40;7.30;;;;;;;9.32;98.33;97905.00;4184823;28;20048;-70
2022/05/23 05:10:23;;;;;;;10.95;7.32;;;;;;;9.35;98.28;97905.03;4185189;28;20097;-70
2022/05/23 05:12:24;;;;;;;9.02;7.32;;;;;;;9.34;98.76;97917.22;4185050;28;20045;-70
2022/05/23 05:14:24;;;;;;;9.65;6.80;;;;;;;9.33;98.94;97910.13;4186770;28;20024;-70
2022/05/23 05:16:25;;;;;;;10.25;7.70;;;;;;;9.40;99.19;97918.47;4185735;28;20037;-70
2022/05/23 05:18:25;;;;;;;12.63;7.38;;;;;;;9.44;98.68;97910.22;4184357;28;20036;-70
2022/05/23 05:20:25;;;;;;;11.73;7.72;;;;;;;9.51;98.48;97911.03;4188191;27;20050;-70
2022/05/23 05:22:26;;;;;;;9.45;7.45;;;;;;;9.55;98.03;97911.88;4185323;28;20492;-70
2022/05/23 05:24:26;;;;;;;12.38;7.43;;;;;;;9.64;97.54;97913.50;4185529;28;20043;-70
2022/05/23 05:26:26;;;;;;;9.65;7.28;;;;;;;9.70;98.04;97907.22;4187662;28;20044;-70
2022/05/23 05:28:27;;;;;;;11.18;7.60;;;;;;;9.79;97.84;97907.69;4186092;28;20744;-70
2022/05/23 05:30:27;;;;;;;9.93;7.57;;;;;;;9.87;97.35;97908.50;4186444;28;20076;-70
2022/05/23 05:32:40;;;;;;;10.05;7.47;;;;;;;9.94;96.46;97913.28;4184483;28;20064;-70
2022/05/23 05:34:52;;;;;;;12.70;7.88;;;;;;;10.01;96.71;97910.53;4184412;28;20032;-70
2022/05/23 05:37:00;;;;;;;10.63;8.25;;;;;;;10.07;97.11;97904.25;4185616;28;20287;-70
2022/05/23 05:39:05;;;;;;;11.45;7.50;;;;;;;10.10;96.81;97908.22;4184519;28;20502;-70
2022/05/23 05:41:11;;;;;;;15.10;7.95;;;;;;;10.16;96.97;97909.41;4185129;28;20048;-70
2022/05/23 05:43:20;;;;;;;10.10;7.72;;;;;;;10.21;95.52;97911.03;4186065;28;20076;-70
2022/05/23 05:45:37;;;;;;;9.20;7.03;;;;;;;10.25;95.10;97909.88;4187040;28;20039;-70
2022/05/23 05:47:40;;;;;;;9.15;7.78;;;;;;;10.29;94.59;97907.94;4184939;28;20630;-70
2022/05/23 05:49:44;;;;;;;10.57;7.75;;;;;;;10.31;93.44;97908.31;4184256;28;20040;-70
2022/05/23 05:51:48;;;;;;;8.73;7.18;;;;;;;10.37;92.58;97908.75;4184080;28;20037;-70
2022/05/23 05:53:51;;;;;;;10.77;7.53;;;;;;;10.45;92.78;97904.03;4185990;28;20041;-70
2022/05/23 05:55:52;;;;;;;10.00;7.30;;;;;;;10.51;92.48;97903.25;4184850;28;20243;-71
2022/05/23 05:57:53;;;;;;;10.43;7.88;;;;;;;10.58;91.59;97894.16;4186101;28;20636;-70
2022/05/23 05:59:53;;;;;;;10.75;7.68;;;;;;;10.72;91.85;97899.72;4183804;28;20087;-70
2022/05/23 06:01:53;;;;;;;7.80;6.97;;;;;;;10.79;91.49;97891.44;4186762;28;20477;-70
2022/05/23 06:03:54;;;;;;;9.30;7.68;;;;;;;10.89;90.75;97900.94;4190429;28;20385;-70
2022/05/23 06:11:23;;;;;;;11.80;7.63;;;;;;;11.14;89.70;97893.44;4187675;28;20052;-70
2022/05/23 06:12:52;;;;;;;9.57;7.80;;;;;;;11.27;91.21;97901.34;4188603;28;20496;-70
2022/05/23 06:14:52;;;;;;;9.35;7.03;;;;;;;11.34;89.64;97888.28;4192566;28;20490;-70
2022/05/23 06:16:53;;;;;;;11.80;8.00;;;;;;;11.40;88.84;97889.44;4189539;28;20408;-71
2022/05/23 06:18:53;;;;;;;11.52;7.32;;;;;;;11.47;88.38;97889.44;4201981;27;20044;-71
2022/05/23 06:20:54;;;;;;;9.32;7.03;;;;;;;11.57;87.93;97881.50;4202291;27;20059;-71
2022/05/23 06:22:54;;;;;;;11.02;7.75;;;;;;;11.66;90.14;97891.00;4188737;28;20048;-71
2022/05/23 06:24:54;;;;;;;9.63;7.00;;;;;;;11.73;88.02;97887.41;4188884;28;21083;-71
2022/05/23 06:26:55;;;;;;;10.80;7.60;;;;;;;11.78;88.07;97885.03;4189485;28;20048;-71
2022/05/23 06:28:55;;;;;;;9.95;7.78;;;;;;;11.85;87.59;97864.84;4191824;28;20124;-70
2022/05/23 06:30:57;;;;;;;9.90;8.13;;;;;;;11.91;88.49;97870.75;4190454;28;20049;-70
2022/05/23 06:32:57;;;;;;;11.60;7.60;;;;;;;11.96;87.01;97870.34;4189959;28;20057;-70
2022/05/23 06:34:58;;;;;;;10.00;7.15;;;;;;;12.07;85.31;97879.41;4188935;28;20045;-71
2022/05/23 06:36:59;;;;;;;9.85;7.28;;;;;;;12.12;84.77;97861.56;4197876;27;20094;-71
2022/05/23 06:38:59;;;;;;;7.60;6.50;;;;;;;12.18;84.75;97860.75;4196921;28;20040;-71
2022/05/23 06:41:00;;;;;;;8.13;7.15;;;;;;;12.26;85.75;97867.06;4192235;28;20052;-71
2022/05/23 06:43:01;;;;;;;11.00;7.28;;;;;;;12.33;85.42;97858.72;4191134;28;20473;-71
2022/05/23 06:45:05;;;;;;;8.52;6.70;;;;;;;12.37;82.73;97854.69;4193717;28;20052;-71
2022/05/23 06:47:05;;;;;;;10.07;7.07;;;;;;;12.48;81.20;97851.06;4187788;28;20384;-71
2022/05/23 06:49:06;;;;;;;12.15;6.65;;;;;;;12.59;79.91;97857.38;4187561;28;20050;-70
2022/05/23 06:51:07;;;;;;;12.63;8.25;;;;;;;12.70;82.05;97854.50;4187611;28;20047;-70
2022/05/23 06:53:08;;;;;;;9.45;6.78;;;;;;;12.75;81.87;97854.09;4197461;27;20092;-70
2022/05/23 06:55:08;;;;;;;13.02;7.90;;;;;;;12.80;84.81;97846.09;4203701;27;20494;-70
2022/05/23 06:57:09;;;;;;;8.80;6.97;;;;;;;12.84;85.00;97855.19;4200587;28;20227;-70
2022/05/23 06:59:11;;;;;;;9.52;7.32;;;;;;;12.92;82.97;97847.59;4189421;28;20459;-71
2022/05/23 07:01:11;;;;;;;12.20;7.03;;;;;;;13.01;83.04;97849.91;4188279;28;20083;-71
2022/05/23 07:03:12;;;;;;;17.85;9.30;;;;;;;13.10;80.17;97844.69;4190847;28;20401;-72
2022/05/23 07:12:25;;;;;;;12.15;8.68;;;;;;;13.68;84.81;97835.41;4195946;27;20522;-71
2022/05/23 07:14:26;;;;;;;12.93;7.85;;;;;;;13.88;84.04;97830.00;4201667;27;20437;-71
2022/05/23 07:16:29;;;;;;;11.32;7.18;;;;;;;14.02;82.98;97826.25;4199816;28;20722;-70
2022/05/23 07:18:30;;;;;;;12.75;8.63;;;;;;;14.11;83.01;97826.53;4187143;28;20105;-71
2022/05/23 07:20:30;;;;;;;12.15;7.90;;;;;;;14.21;83.06;97833.16;4187691;28;20044;-72
2022/05/23 07:22:32;;;;;;;11.43;7.75;;;;;;;14.32;81.84;97828.25;4188245;28;20041;-70
2022/05/23 07:24:33;;;;;;;10.40;7.83;;;;;;;14.40;82.16;97823.34;4203329;27;20596;-70
2022/05/23 07:26:33;;;;;;;14.35;7.03;;;;;;;14.48;80.06;97813.72;4202977;27;20063;-71
2022/05/23 07:28:35;;;;;;;11.57;7.60;;;;;;;14.61;82.61;97817.50;4202261;27;20068;-71
2022/05/23 07:30:35;;;;;;;14.37;8.03;;;;;;;14.74;81.26;97820.50;4194486;28;20047;-71
2022/05/23 07:32:36;;;;;;;8.98;7.07;;;;;;;14.84;81.86;97808.41;4202259;27;20036;-71
2022/05/23 07:34:37;;;;;;;9.48;7.47;;;;;;;15.00;84.71;97797.41;4200671;28;20085;-71
2022/05/23 07:36:37;;;;;;;10.27;7.68;;;;;;;15.18;83.96;97795.09;4190135;28;20051;-71
2022/05/23 07:38:38;;;;;;;8.05;6.47;;;;;;;15.24;76.45;97780.69;4193276;28;20079;-71
2022/05/23 07:40:38;;;;;;;10.98;6.25;;;;;;;15.33;76.08;97772.53;4190590;28;20128;-71
2022/05/23 07:42:39;;;;;;;7.75;5.70;;;;;;;15.40;78.54;97773.19;4190142;28;20823;-71
2022/05/23 07:44:39;;;;;;;6.50;5.55;;;;;;;15.43;74.45;97769.53;4186262;28;20086;-71
2022/05/23 07:46:42;;;;;;;10.25;5.43;;;;;;;15.51;75.38;97766.63;4192316;28;20047;-71
2022/05/23 07:48:46;;;;;;;8.45;5.63;;;;;;;15.54;75.36;97768.53;4185690;28;20063;-70
2022/05/23 07:50:49;;;;;;;5.00;4.53;;;;;;;15.57;71.09;97760.13;4189063;28;20051;-71
2022/05/23 08:02:07;;;;;;;7.03;5.38;;;;;;;16.07;75.99;97724.84;4185934;28;20043;-72
2022/05/23 08:04:09;;;;;;;;;;;;;;;16.19;76.08;97716.56;4186518;28;20507;-71
2022/05/23 08:06:09;;;;;;;6.72;5.30;;;;;;;16.20;73.94;97708.97;4187586;28;19912;-72
2022/05/23 08:08:10;;;;;;;5.72;4.70;;;;;;;16.30;73.48;97705.16;4186841;28;20158;-72
2022/05/23 08:10:11;;;;;;;6.35;4.72;;;;;;;16.52;75.52;97697.06;4191784;27;20063;-71
2022/05/23 08:12:14;;;;;;;7.68;4.82;;;;;;;16.76;73.07;97695.66;4201898;27;20331;-71
2022/05/23 08:14:14;;;;;;;8.70;4.75;;;;;;;16.88;73.43;97677.44;4191440;28;20297;-72
2022/05/23 08:16:15;;;;;;;6.32;4.90;;;;;;;17.01;72.54;97669.88;4188995;28;20036;-72
2022/05/23 08:18:17;;;;;;;5.50;3.97;;;;;;;17.12;70.68;97673.16;4185372;28;20184;-72
2022/05/23 08:20:18;;;;;;;7.90;4.22;;;;;;;17.24;71.73;97654.88;4188603;28;20229;-72
2022/05/23 08:22:19;;;;;;;7.57;4.80;;;;;;;17.35;69.37;97648.97;4185550;28;20553;-72
2022/05/23 08:24:20;;;;;;;5.73;4.10;;;;;;;17.48;69.20;97643.41;4188975;28;20039;-72
2022/05/23 08:26:21;;;;;;;4.82;4.18;;;;;;;17.58;69.97;97636.72;4185709;28;20432;-72
2022/05/23 08:28:22;;;;;;;6.03;4.20;;;;;;;17.66;68.63;97633.25;4185290;28;20075;-72
2022/05/23 08:30:22;;;;;;;6.55;4.28;;;;;;;17.79;69.12;97619.31;4186304;28;20040;-72
2022/05/23 08:32:23;;;;;;;4.07;3.65;;;;;;;17.90;68.80;97618.97;4186988;28;20466;-72
2022/05/23 08:34:24;;;;;;;4.30;3.53;;;;;;;17.96;69.12;97611.59;4186502;28;20044;-72
2022/05/23 08:36:24;;;;;;;5.70;3.75;;;;;;;18.01;68.27;97610.25;4186372;28;20040;-72
2022/05/23 08:38:25;;;;;;;4.35;3.72;;;;;;;18.06;67.75;97610.47;4185978;28;20182;-72
2022/05/23 08:40:38;;;;;;;4.20;3.42;;;;;;;18.02;67.92;97590.19;4186505;28;20104;-72
2022/05/23 08:42:53;;;;;;;7.20;3.85;;;;;;;18.10;67.22;97593.53;4186579;28;20052;-72
2022/05/23 08:45:22;;;;;;;5.63;3.60;;;;;;;18.07;67.69;97588.84;4186355;28;20547;-72
2022/05/23 08:47:33;;;;;;;7.60;3.70;;;;;;;18.09;66.05;97603.19;4186439;28;20276;-72
2022/05/23 08:49:46;;;;;;;5.07;3.47;;;;;;;18.17;67.15;97604.50;4185871;28;20048;-72
2022/05/23 08:52:08;;;;;;;4.15;3.72;;;;;;;18.22;67.60;97603.97;4185279;28;20371;-72
2022/05/23 08:54:17;;;;;;;4.20;3.60;;;;;;;18.32;67.15;97607.63;4186554;28;20679;-72
2022/05/23 08:56:23;;;;;;;8.40;3.95;;;;;;;18.40;65.28;97612.53;4186719;28;20411;-72
2022/05/23 08:58:31;;;;;;;6.90;3.55;;;;;;;18.51;65.20;97604.56;4188686;28;20055;-72
2022/05/23 09:00:42;;;;;;;6.18;3.60;;;;;;;18.63;65.80;97599.38;4201377;27;20131;-72
2022/05/23 09:02:54;;;;;;;7.95;3.33;;;;;;;18.75;65.86;97599.34;4201406;27;20380;-72
2022/05/23 09:05:02;;;;;;;5.38;3.50;;;;;;;18.95;64.97;97598.25;4186747;28;20044;-72
2022/05/23 09:07:05;;;;;;;8.02;3.53;;;;;;;19.12;64.59;97596.84;4186280;28;20372;-72
2022/05/23 09:09:10;;;;;;;9.43;3.55;;;;;;;19.20;61.08;97603.75;4184801;28;20091;-72
2022/05/23 09:11:28;;;;;;;6.57;3.47;;;;;;;19.12;60.06;97601.69;4187910;28;20040;-72
2022/05/23 09:13:32;;;;;;;4.38;3.35;;;;;;;19.11;62.38;97600.88;4201445;27;20469;-71
2022/05/23 09:15:32;;;;;;;5.00;3.38;;;;;;;19.25;66.18;97605.19;4199237;27;20071;-72
2022/05/23 09:17:39;;;;;;;4.65;3.55;;;;;;;19.38;66.39;97600.28;4181465;28;20036;-72
2022/05/23 09:19:48;;;;;;;4.57;3.50;;;;;;;19.54;64.69;97613.31;4199792;27;20067;-72
2022/05/23 09:24:11;;;;;;;3.88;2.97;;;;;;;19.97;64.97;97611.69;4185165;28;20396;-72
2022/05/23 09:26:29;;;;;;;4.65;3.40;;;;;;;20.13;60.44;97603.00;4186870;28;20581;-72
2022/05/23 09:28:39;;;;;;;3.22;2.85;;;;;;;20.22;59.71;97603.03;4185140;28;20048;-72
2022/05/23 09:30:42;;;;;;;4.30;3.42;;;;;;;20.23;58.20;97601.00;4185943;28;20048;-72
2022/05/23 09:33:00;;;;;;;7.22;3.33;;;;;;;20.14;59.92;97587.72;4186215;28;20041;-72
2022/05/23 09:35:14;;;;;;;4.60;3.05;;;;;;;20.01;58.16;97587.81;4196427;27;20044;-72
2022/05/23 09:37:22;;;;;;;4.03;2.80;;;;;;;19.98;58.58;97583.13;4186519;28;20380;-72
2022/05/23 09:39:24;;;;;;;4.35;3.13;;;;;;;19.92;58.57;97580.16;4194086;28;20044;-72
2022/05/23 09:49:07;;;;;;;4.10;2.80;;;;;;;19.49;58.44;97600.66;4203593;27;20055;-72
2022/05/23 09:51:10;;;;;;;4.75;3.08;;;;;;;19.47;59.40;97591.16;4205243;27;20446;-72
2022/05/23 09:53:24;;;;;;;3.88;3.05;;;;;;;19.57;60.13;97598.41;4189009;28;20472;-72
2022/05/23 09:55:31;;;;;;;6.72;3.20;;;;;;;19.61;58.92;97594.22;4189833;28;20543;-72
2022/05/23 09:57:42;;;;;;;4.82;2.80;;;;;;;19.64;58.45;97582.06;4190170;28;20041;-72
2022/05/23 09:59:43;;;;;;;3.25;2.90;;;;;;;19.72;60.33;97581.78;4191112;28;20043;-72
2022/05/23 10:01:44;;;;;;;6.65;3.20;;;;;;;19.97;60.80;97592.81;4204877;27;20052;-72
2022/05/23 10:03:49;;;;;;;3.30;2.72;;;;;;;20.22;58.20;97586.16;4189682;28;20068;-72
2022/05/23 10:06:05;;;;;;;6.03;3.13;;;;;;;20.22;55.71;97593.81;4189166;28;20106;-72
2022/05/23 10:08:34;;;;;;;5.28;2.97;;;;;;;20.34;55.66;97571.19;4197231;27;20048;-72
2022/05/23 10:10:37;;;;;;;4.93;2.92;;;;;;;20.65;55.31;97573.94;4195667;28;20048;-72
2022/05/23 10:12:38;;;;;;;3.30;3.00;;;;;;;20.80;56.27;97564.88;4188939;28;20064;-72
2022/05/23 10:14:48;;;;;;;4.93;3.60;;;;;;;20.88;55.24;97572.53;4188824;28;20044;-72
2022/05/23 10:16:52;;;;;;;5.38;3.00;;;;;;;21.05;54.75;97567.38;4188973;28;20052;-72
2022/05/23 10:19:06;;;;;;;5.60;2.80;;;;;;;20.86;53.16;97568.63;4187385;28;20048;-72
2022/05/23 10:21:36;;;;;;;3.58;2.58;;;;;;;21.00;53.83;97565.19;4190866;28;20045;-72
2022/05/23 10:23:39;;;;;;;7.55;3.63;;;;;;;21.12;54.56;97563.47;4196590;28;20037;-72
2022/05/23 10:25:55;;;;;;;7.43;2.90;;;;;;;21.14;54.38;97569.38;4194849;28;20044;-72
2022/05/23 10:28:05;;;;;;;4.20;3.05;;;;;;;21.18;54.28;97567.97;4188881;28;20366;-72
2022/05/23 10:30:08;;;;;;;8.35;2.75;;;;;;;21.17;53.07;97574.84;4187778;28;20040;-72
2022/05/23 10:32:12;;;;;;;3.53;2.63;;;;;;;21.12;53.53;97563.47;4188239;28;20127;-72
2022/05/23 10:34:38;;;;;;;4.95;3.08;;;;;;;21.06;53.39;97566.13;4203295;27;20613;-72